HEGNHEMA

Guest
Details From HEGN - HURGHADA INTL
To HEMA - MARSA ALAM INTL
Flight Number -
Tags generated
Created
Modified
Stats Distance 106 nm / 197 km
Max Altitude 300 ft / 91 m
Waypoints 3
Social Downloads 4
Likes 0
Share

Download

Looking for another format? Having issues loading an existing format? Contact us
Advertisement - Login to hide

Notes

Basic altitude profile: - Ascent Rate: 2500ft/min - Ascent Speed: 250kts - Cruise Altitude: 5000ft - Cruise Speed: 420kts - Descent Rate: 1500ft/min - Descent Speed: 250kts Options: - Use NATs: yes - Use PACOTS: yes - Use low airways: yes - Use high airways: yes

Route

HEGN MAK HEMA

ID Type Via Altitude (ft/m) Position (lat/lon) Dist (leg/tot) Name
O HEGN APT - 0 / 0 27.17831 / 33.79940 - / 0 nm HURGHADA INTL
MAK VOR - 300 / 91 25.58278 / 34.56556 104 / 104 nm MARSA ALAM VOR-DME
O HEMA APT - 0 / 0 25.55711 / 34.58371 1 / 106 nm MARSA ALAM INTL

Altitude Profile

Advertisement - Login to hide

HEGN

Details ICAO HEGN (HRG)
Name Hurghada Intl
Region Egypt
Timezone Africa/Cairo (UTC+2.0)
Stats Elevation 109 ft / 33 m (AMSL)
Location 27.177500° 33.796300°
Runways 2
Magnetic Variation 4.481° E

METAR

HEGN 111200Z 35014KT CAVOK 33/11 Q1006 NOSIG

Decode

TAF

TAF HEGN 111100Z 1112/1218 34012G22KT CAVOK

Decode

Departure Runways

ID Width Length Bearing (true/mag) Surface Threshold Overrun Markings Lighting
16L 148 ft / 45 m 13,171 ft / 4,015 m 165.30° / 160.82° ASPHALT 991 ft / 302 m 0 ft / 0 m PREC-APP CENTERLINE EDGE THRESHOLD ALSF-I
16R 197 ft / 60 m 13,168 ft / 4,014 m 165.26° / 160.78° ASPHALT 0 ft / 0 m 394 ft / 120 m PREC-APP CENTERLINE EDGE THRESHOLD ALSF-I
34L 197 ft / 60 m 13,168 ft / 4,014 m 345.26° / 340.78° ASPHALT 0 ft / 0 m 394 ft / 120 m PREC-APP CENTERLINE EDGE THRESHOLD ALSF-I
34R 148 ft / 45 m 13,171 ft / 4,015 m 345.30° / 340.82° ASPHALT 0 ft / 0 m 200 ft / 61 m PREC-APP CENTERLINE EDGE THRESHOLD ALSF-I

HEMA

Details ICAO HEMA (RMF)
Name Marsa Alam Intl
Region Egypt
Timezone Africa/Cairo (UTC+2.0)
Stats Elevation 250 ft / 76 m (AMSL)
Location 25.558100° 34.583100°
Runways 1
Magnetic Variation 4.334° E

METAR

Not found

TAF

TAF TAF HEMA 111100Z 1112/1218 36015KT CAVOK

Decode

Destination Runways

ID Width Length Bearing (true/mag) Surface Threshold Overrun Markings Lighting
15 148 ft / 45 m 10,661 ft / 3,249 m 150.00° / 145.67° ASPHALT 0 ft / 0 m 295 ft / 90 m PREC-APP CENTERLINE EDGE THRESHOLD
33 148 ft / 45 m 10,661 ft / 3,249 m 330.01° / 325.68° ASPHALT 0 ft / 0 m 295 ft / 90 m PREC-APP CENTERLINE EDGE THRESHOLD SALS

Popular Alternatives